Terminal Aerodrome Forecast
Issued by NWS Detroit/Pontiac, MI

Home | Current Version | Previous Version | Text Only | Print | Product List | Glossary On
Versions: 1 2 3 4 5 6 7 8 9 10 11 12 13 14 15 16 17 18 19 20 21 22 23 24 25
000
FTUS43 KDTX 221720
TAFDTW
TAF
KDTW 221720Z 2218/2324 25015G25KT P6SM VCSH BKN030
     FM222100 28013G20KT P6SM BKN040
     FM230100 30010KT P6SM SCT040
     FM230900 26005KT P6SM SKC
     FM231700 29014KT P6SM SCT045=

USA.gov is the U.S. government's official web portal to all federal, state and local government web resources and services.